Latest Coastal Weather Observations for Wilsons Promontory

IDT60701

Issued at 5:22 pm EDT Saturday 21 January 2017 (issued every 10 minutes, with the page automatically refreshed every 10 minutes)

About coastal observations | Map of coastal stations | Coastal observations for TAS | Marine services | Other Formats
Station Details ID: 085096 Name: WILSONS PROMONTORY LIGHTHOUSE Lat: -39.13 Lon: 146.42 Height: 95.0 m
Data from the previous 72 hours. | See also: Recent months at Wilsons Promontory
Date/Time
EDT
Temp
°C
Wind Pressure Rain since
9am
mm
Weather Cloud Vis
km
Sea
Height
m
Swell
Dir  Spd
kts
Gust
kts
hPa Trend Height
m
Period
s
Dir
21/05:00pm 18.6 W 15 20 1014.7 - 0.0 - - - - - - -
21/04:30pm 18.5 W 15 20 1014.7 - 0.0 - - - - - - -
21/04:00pm 18.7 W 17 23 1014.8 - 0.0 - - - - - - -
21/03:30pm 18.6 W 19 24 1014.8 - 0.0 - - - - - - -
21/03:00pm 18.7 W 18 23 1014.5 - 0.0 - - - - - - -
21/02:30pm 18.5 W 19 24 1014.6 - 0.0 - - - - - - -
21/02:00pm 17.2 W 14 23 1014.6 - 0.0 - - - - - - -
21/01:30pm 18.2 W 15 23 1014.7 - 0.0 - - - - - - -
21/01:00pm 17.2 W 16 22 1014.6 - 0.0 - - - - - - -
21/12:30pm 17.4 W 15 21 1014.5 - 0.0 - - - - - - -
21/12:00pm 16.4 WSW 23 28 1014.0 - 0.0 - - - - - - -
21/11:30am 16.7 W 18 23 1014.1 - 0.0 - - - - - - -
21/10:30am 15.9 W 19 25 1013.8 - 0.0 - - - - - - -
21/10:00am 15.5 W 19 25 1013.6 - 0.0 - - - - - - -
21/09:36am 15.5 WSW 21 31 1013.3 - 0.0 - - - - - - -
21/09:30am 15.4 WSW 24 31 1013.0 - 0.0 - - - - - - -
21/09:00am 15.7 WSW 22 26 1012.5 - 1.6 - - - - - - -
21/08:30am 15.4 WSW 19 29 1012.4 - 1.6 - - - - - - -
21/08:12am 15.3 W 21 31 1012.1 - 1.6 - - - - - - -
21/08:00am 15.2 WSW 23 30 1011.8 - 1.6 - - - - - - -
21/07:30am 15.0 W 20 30 1011.2 - 1.6 - - - - - - -
21/07:00am 14.8 W 20 30 1010.6 - 1.6 - - - - - - -
21/06:44am 14.7 W 20 30 1010.3 - 1.6 - - - - - - -
21/06:30am 14.6 WSW 22 30 1010.2 - 1.6 - - - - - - -
21/06:00am 14.5 WSW 27 31 1009.5 - 1.6 - - - - - - -
21/05:30am 14.4 SW 31 34 1009.0 - 1.6 - - - - - - -
21/05:00am 14.7 SW 32 37 1008.3 - 1.6 - - - - - - -
21/04:30am 14.5 WSW 31 36 1008.0 - 1.6 - - - - - - -
21/04:00am 14.5 WSW 29 36 1007.7 - 1.6 - - - - - - -
21/03:30am 14.2 WSW 36 40 1007.5 - 1.6 - - - - - - -
21/03:00am 14.3 WSW 32 37 1007.2 - 1.6 - - - - - - -
21/02:30am 14.2 WSW 33 39 1006.8 - 1.6 - - - - - - -
21/02:00am 14.3 SW 32 39 1006.8 - 1.6 - - - - - - -
21/01:30am 14.3 WSW 34 38 1006.8 - 1.6 - - - - - - -
21/01:00am 14.3 WSW 34 38 1006.6 - 1.6 - - - - - - -
21/12:30am 14.7 WSW 35 39 1006.4 - 1.6 - - - - - - -
21/12:00am 14.7 WSW 37 43 1005.6 - 1.6 - - - - - - -
 
Date/Time
EDT
Temp
°C
Wind Pressure Rain since
9am
mm
Weather Cloud Vis
km
Sea
Height
m
Swell
Dir  Spd
kts
Gust
kts
hPa Trend Height
m
Period
s
Dir
20/11:40pm 14.8 WSW 32 42 1005.8 - 1.6 - - - - - - -
20/11:30pm 14.8 WSW 32 41 1005.8 - 1.6 - - - - - - -
20/11:21pm 14.7 WSW 31 41 1005.7 - 1.6 - - - - - - -
20/11:00pm 14.8 WSW 33 41 1005.6 - 1.6 - - - - - - -
20/10:30pm 15.0 WSW 31 43 1005.3 - 1.6 - - - - - - -
20/10:00pm 15.0 W 32 44 1004.6 - 1.6 - - - - - - -
20/09:35pm 15.3 WSW 33 43 1004.3 - 1.6 - - - - - - -
20/09:30pm 15.1 WSW 34 43 1004.2 - 1.6 - - - - - - -
20/09:00pm 15.3 W 34 46 1003.2 - 1.6 - - - - - - -
20/08:59pm 15.3 W 31 46 1003.5 - 1.6 - - - - - - -
20/08:30pm 15.5 WSW 42 52 1002.5 - 1.6 - - - - - - -
20/08:29pm 15.6 WSW 42 52 1002.6 - 1.6 - - - - - - -
20/08:27pm 15.7 WSW 47 52 1002.4 - 1.6 - - - - - - -
20/08:00pm 15.9 W 36 48 1002.2 - 1.6 - - - - - - -
20/07:30pm 16.1 WSW 37 48 1001.6 - 1.6 - - - - - - -
20/07:00pm 16.2 WSW 41 52 1001.0 - 1.6 - - - - - - -
20/06:30pm 16.0 WSW 45 57 999.9 - 1.6 - - - - - - -
20/06:06pm 16.0 WSW 45 55 999.3 - 1.6 - - - - - - -
20/06:03pm 16.1 WSW 48 53 999.0 - 1.6 - - - - - - -
20/06:01pm 16.2 W 37 55 999.1 - 1.6 - - - - - - -
20/06:00pm 16.3 W 36 55 999.1 - 1.6 - - - - - - -
20/05:58pm 16.4 W 36 55 999.4 - 1.6 - - - - - - -
20/05:30pm 16.5 WSW 47 57 998.5 - 1.6 - - - - - - -
20/05:28pm 16.4 WSW 51 57 998.0 - 1.6 - - - - - - -
20/05:00pm 16.7 WSW 40 52 997.6 - 1.6 - - - - - - -
20/04:30pm 16.4 W 37 46 997.3 - 1.6 - - - - - - -
20/04:00pm 16.3 W 33 45 996.6 - 1.6 - - - - - - -
20/03:30pm 16.4 W 32 42 996.0 - 1.6 - - - - - - -
20/03:00pm 16.3 W 31 44 995.3 - 1.6 - - - - - - -
20/02:34pm 16.2 WSW 39 49 995.0 - 1.6 - - - - - - -
20/02:30pm 15.9 WSW 41 49 995.1 - 1.6 - - - - - - -
20/02:23pm 15.4 WSW 47 57 994.5 - 1.6 - - - - - - -
20/02:22pm 15.5 WSW 48 57 994.6 - 1.6 - - - - - - -
20/02:09pm 15.0 WSW 50 64 992.5 - 1.6 - - - - - - -
20/02:01pm 15.8 WSW 51 57 993.1 - 1.6 - - - - - - -
20/02:00pm 16.0 W 36 53 993.3 - 1.6 - - - - - - -
20/01:30pm 16.1 W 33 45 993.2 - 1.6 - - - - - - -
20/01:00pm 16.1 W 34 45 993.0 - 1.6 - - - - - - -
20/12:30pm 15.8 W 29 43 992.5 - 1.6 - - - - - - -
20/12:00pm 16.5 W 24 35 992.0 - 1.6 - - - - - - -
20/11:30am 16.6 W 19 30 991.9 - 1.2 - - - - - - -
20/11:00am 16.6 W 17 27 991.9 - 1.2 - - - - - - -
20/10:37am 16.4 W 17 27 991.7 - 1.2 - - - - - - -
20/10:30am 16.3 W 19 27 991.7 - 1.2 - - - - - - -
20/10:18am 16.2 W 17 27 991.7 - 1.2 - - - - - - -
20/10:00am 16.5 W 16 22 991.8 - 1.0 - - - - - - -
20/09:30am 16.5 WSW 16 27 991.8 - 0.4 - - - - - - -
20/09:26am 16.5 WSW 15 27 991.5 - 0.2 - - - - - - -
20/09:00am 16.6 NNW 6 9 991.7 - 13.6 - - - - - - -
20/08:30am 16.6 N 10 15 992.0 - 13.2 - - - - - - -
20/08:00am 16.5 NNE 15 19 991.3 - 10.0 - - - - - - -
20/07:30am 16.5 NNE 18 22 990.9 - 8.8 - - - - - - -
20/07:00am 16.6 NE 17 24 991.5 - 8.8 - - - - - - -
20/06:30am 16.7 NE 13 17 992.7 - 8.6 - - - - - - -
20/06:00am 16.7 NE 11 14 993.8 - 7.4 - - - - - - -
20/05:59am 16.7 NE 11 14 994.1 - 7.4 - - - - - - -
20/05:30am 16.8 ENE 3 6 996.1 - 5.4 - - - - - - -
20/05:00am 17.0 N 2 5 997.8 - 3.6 - - - - - - -
20/04:30am 16.9 NE 7 8 997.9 - 2.4 - - - - - - -
20/04:00am 17.2 NNE 8 10 998.9 - 0.4 - - - - - - -
20/03:30am 17.4 NE 7 8 999.4 - 0.0 - - - - - - -
20/03:00am 17.5 ENE 8 17 999.8 - 0.0 - - - - - - -
20/02:30am 17.6 NNE 12 16 1000.1 - 0.0 - - - - - - -
20/02:00am 17.4 NNE 19 25 998.6 - 0.0 - - - - - - -
20/01:30am 17.2 NE 19 23 999.2 - 0.0 - - - - - - -
20/01:00am 17.2 NE 21 25 999.8 - 0.0 - - - - - - -
20/12:30am 17.2 NE 23 27 1000.3 - 0.0 - - - - - - -
20/12:00am 17.2 ENE 25 30 1001.0 - 0.0 - - - - - - -
 
Date/Time
EDT
Temp
°C
Wind Pressure Rain since
9am
mm
Weather Cloud Vis
km
Sea
Height
m
Swell
Dir  Spd
kts
Gust
kts
hPa Trend Height
m
Period
s
Dir
19/11:30pm 17.2 ENE 25 30 1002.2 - 0.0 - - - - - - -
19/11:00pm 17.2 ENE 26 33 1002.9 - 0.0 - - - - - - -
19/10:30pm 17.1 NE 24 30 1004.3 - 0.0 - - - - - - -
19/10:00pm 16.8 ENE 27 32 1005.0 - 0.0 - - - - - - -
19/09:30pm 16.8 ENE 30 37 1005.3 - 0.0 - - - - - - -
19/09:00pm 16.7 ENE 29 35 1005.9 - 0.0 - - - - - - -
19/08:30pm 16.8 ENE 32 36 1006.9 - 0.0 - - - - - - -
19/08:00pm 16.7 ENE 32 38 1007.3 - 0.0 - - - - - - -
19/07:30pm 16.9 ENE 28 33 1008.0 - 0.0 - - - - - - -
19/07:00pm 16.8 ENE 30 36 1007.8 - 0.0 - - - - - - -
19/06:30pm 16.8 ENE 29 34 1008.1 - 0.0 - - - - - - -
19/06:00pm 17.2 ENE 28 33 1008.5 - 0.0 - - - - - - -
19/05:30pm 17.2 ENE 25 31 1009.3 - 0.0 - - - - - - -
19/05:00pm 17.1 ENE 30 36 1009.3 - 0.0 - - - - - - -
19/04:30pm 17.3 ENE 26 33 1009.6 - 0.0 - - - - - - -
19/04:00pm 17.3 NE 23 28 1010.0 - 0.0 - - - - - - -
19/03:30pm 17.3 NE 24 29 1010.5 - 0.0 - - - - - - -
19/03:00pm 17.5 NE 23 28 1010.9 - 0.0 - - - - - - -
19/02:00pm 17.6 NE 22 26 1011.8 - 0.0 - - - - - - -
19/01:30pm 17.6 NE 23 26 1012.2 - 0.0 - - - - - - -
19/01:00pm 17.6 ENE 22 27 1012.4 - 0.0 - - - - - - -
19/12:30pm 18.1 NE 18 21 1013.1 - 0.0 - - - - - - -
19/12:00pm 17.7 NE 16 20 1013.2 - 0.0 - - - - - - -
19/11:30am 18.0 NE 17 21 1013.4 - 0.0 - - - - - - -
19/11:00am 18.2 NE 14 17 1013.7 - 0.0 - - - - - - -
19/10:30am 17.9 NE 13 19 1014.1 - 0.0 - - - - - - -
19/10:00am 17.9 NE 13 17 1014.4 - 0.0 - - - - - - -
19/09:30am 18.2 ENE 13 16 1014.6 - 0.0 - - - - - - -
19/09:00am 18.0 NE 11 14 1014.6 - 0.0 - - - - - - -
19/08:30am 18.2 ENE 8 12 1014.8 - 0.0 - - - - - - -
19/08:00am 17.4 ENE 8 10 1014.7 - 0.0 - - - - - - -
19/07:30am 16.7 ENE 6 8 1014.7 - 0.0 - - - - - - -
19/07:00am 16.1 NE 4 5 1014.7 - 0.0 - - - - - - -
19/06:30am 14.7 ENE 3 4 1014.7 - 0.0 - - - - - - -
19/06:00am 14.4 E 4 5 1014.3 - 0.0 - - - - - - -
19/05:30am 14.3 ESE 2 4 1014.2 - 0.0 - - - - - - -
19/05:00am 14.2 E 5 8 1014.1 - 0.0 - - - - - - -
19/04:30am 14.5 SSE 5 7 1014.1 - 0.0 - - - - - - -
19/04:00am 14.5 SE 3 5 1014.4 - 0.0 - - - - - - -
19/03:30am 14.7 SSE 7 9 1014.5 - 0.0 - - - - - - -
19/03:00am 14.8 S 8 10 1014.4 - 0.0 - - - - - - -
19/02:30am 15.0 SW 5 9 1014.8 - 0.0 - - - - - - -
19/02:00am 15.1 WSW 5 9 1015.1 - 0.0 - - - - - - -
19/01:30am 15.2 WNW 5 8 1015.0 - 0.0 - - - - - - -
19/01:00am 15.2 WSW 6 13 1015.7 - 0.0 - - - - - - -
19/12:30am 15.2 SW 6 12 1015.9 - 0.0 - - - - - - -
19/12:00am 15.3 WNW 8 16 1015.5 - 0.0 - - - - - - -
 
Date/Time
EDT
Temp
°C
Wind Pressure Rain since
9am
mm
Weather Cloud Vis
km
Sea
Height
m
Swell
Dir  Spd
kts
Gust
kts
hPa Trend Height
m
Period
s
Dir
18/11:30pm 15.3 SW 7 20 1016.3 - 0.0 - - - - - - -
18/11:00pm 15.3 SW 15 24 1016.4 - 0.0 - - - - - - -
18/10:30pm 15.2 WSW 19 22 1016.0 - 0.0 - - - - - - -
18/10:00pm 15.1 WSW 25 30 1015.7 - 0.0 - - - - - - -
18/09:30pm 15.0 WSW 30 34 1015.4 - 0.0 - - - - - - -
18/09:00pm 15.1 WSW 27 32 1015.2 - 0.0 - - - - - - -
18/08:30pm 15.1 WSW 26 32 1015.0 - 0.0 - - - - - - -
18/08:00pm 15.4 W 23 32 1014.7 - 0.0 - - - - - - -
18/07:56pm 15.4 W 22 32 1014.8 - 0.0 - - - - - - -
18/07:30pm 15.6 W 23 32 1014.3 - 0.0 - - - - - - -
18/07:27pm 15.6 W 22 32 1014.4 - 0.0 - - - - - - -
18/07:00pm 15.8 WSW 24 32 1014.5 - 0.0 - - - - - - -
18/06:30pm 16.0 WSW 24 31 1014.4 - 0.0 - - - - - - -
18/06:02pm 16.2 W 25 35 1014.3 - 0.0 - - - - - - -
18/06:00pm 15.9 WSW 27 35 1014.1 - 0.0 - - - - - - -
18/05:36pm 15.9 WSW 25 35 1014.1 - 0.0 - - - - - - -
18/05:30pm 15.9 WSW 28 35 1014.0 - 0.0 - - - - - - -

Other Formats:

Comma delimited format used in spreadsheet applications
http://www.bom.gov.au/fwo/IDT60701/IDT60701.94893.axf

JavaScript Object Notation format (JSON) in row-major order
http://www.bom.gov.au/fwo/IDT60701/IDT60701.94893.json